GW2905 Weather Reports


Display with metric or nautical units.
time (UTC)temp
F
wind
direction
speed
MPH
gust
MPH
rain 1hr
in
rain 24hr
in
rain mn
in
humidity
%
barometer
mb
20260508181556 58 123 1.0 6.0 0.00 0.00 0.00 67 1021.1
20260508180105 54 171 1.0 3.0 0.00 0.00 0.00 72 1021.2
20260508174557 53 155 0.0 4.0 0.00 0.00 0.00 74 1021.1
20260508173053 53 0 1.0 4.0 0.00 0.00 0.00 76 1020.9
20260508171552 52 190 1.0 4.0 0.00 0.00 0.00 77 1020.8
20260508170054 53 170 0.0 2.0 0.00 0.00 0.00 77 1020.5
20260508164558 51 124 0.0 3.0 0.00 0.00 0.00 78 1020.4
20260508163051 50 0 0.0 5.0 0.00 0.00 0.00 79 1020.0
20260508161550 50 0 1.0 3.0 0.00 0.00 0.00 79 1020.1
20260508160049 50 0 1.0 5.0 0.00 0.00 0.00 78 1019.8
20260508154550 51 0 1.0 6.0 0.00 0.00 0.00 80 1019.9
20260508153052 49 0 1.0 7.0 0.00 0.00 0.00 84 1019.8
20260508151552 49 0 1.0 7.0 0.00 0.00 0.00 85 1019.8
20260508150052 49 153 0.0 2.0 0.00 0.00 0.00 86 1020.0
20260508144550 49 0 0.0 2.0 0.00 0.00 0.00 87 1019.9
20260508143054 49 0 1.0 2.0 0.00 0.00 0.00 87 1020.1
20260508141554 48 0 0.0 3.0 0.00 0.00 0.00 87 1020.0
20260508140104 48 0 0.0 2.0 0.00 0.00 0.00 89 1019.5
20260508134602 48 0 0.0 2.0 0.00 0.00 0.00 89 1019.3
20260508133051 47 0 0.0 2.0 0.00 0.00 0.00 90 1019.2
20260508131555 47 0 0.0 1.0 0.00 0.00 0.00 89 1018.8
20260508130052 48 208 0.0 3.0 0.00 0.00 0.00 89 1018.4
20260508124553 48 0 0.0 2.0 0.00 0.00 0.00 89 1018.0
20260508123055 49 0 0.0 2.0 0.00 0.00 0.00 87 1018.1
20260508121557 49 0 0.0 1.0 0.00 0.00 0.00 85 1017.8
20260508120056 49 0 0.0 1.0 0.00 0.00 0.00 85 1017.7
20260508114609 49 0 0.0 0.0 0.00 0.00 0.00 85 1017.7
20260508113105 50 0 0.0 1.0 0.00 0.00 0.00 84 1017.4
20260508111600 50 17 0.0 1.0 0.00 0.00 0.00 83 1017.2
20260508110051 51 0 0.0 1.0 0.00 0.00 0.00 81 1017.1
20260508104553 50 0 0.0 0.0 0.00 0.00 0.00 82 1016.9
20260508103053 51 0 0.0 1.0 0.00 0.00 0.00 81 1016.9
20260508101554 51 0 0.0 1.0 0.00 0.00 0.00 80 1016.7
20260508100053 52 0 0.0 0.0 0.00 0.00 0.00 78 1016.7
20260508094600 52 0 0.0 1.0 0.00 0.00 0.00 78 1016.5
20260508093100 52 17 0.0 2.0 0.00 0.00 0.00 78 1016.3
20260508091604 52 0 0.0 1.0 0.00 0.00 0.00 78 1016.3
20260508090105 52 0 0.0 1.0 0.00 0.00 0.00 78 1016.2
20260508084552 52 0 0.0 1.0 0.00 0.00 0.00 77 1016.0
20260508083107 52 0 0.0 1.0 0.00 0.00 0.00 77 1016.1
20260508081551 52 0 0.0 2.0 0.00 0.00 0.00 78 1016.1
20260508080101 52 0 0.0 2.0 0.00 0.00 0.00 78 1016.1
20260508074603 52 0 0.0 1.0 0.00 0.00 0.00 77 1016.0
20260508073052 52 0 0.0 1.0 0.00 0.00 0.00 76 1016.0
20260508071551 53 360 0.0 2.0 0.00 0.00 0.00 73 1016.1
20260508070050 53 0 0.0 1.0 0.00 0.00 0.00 74 1016.1
20260508064555 54 171 0.0 1.0 0.00 0.00 0.00 71 1016.1
20260508063052 55 0 0.0 2.0 0.00 0.00 0.00 69 1016.0
20260508061554 56 0 0.0 1.0 0.00 0.00 0.00 68 1015.9
20260508060055 56 0 0.0 2.0 0.00 0.00 0.00 66 1016.0
20260508054551 56 0 0.0 2.0 0.00 0.00 0.00 66 1016.1
20260508053100 57 0 0.0 2.0 0.00 0.00 0.00 64 1016.1
20260508051604 57 0 0.0 2.0 0.00 0.00 0.00 63 1016.1
20260508050055 58 0 0.0 2.0 0.00 0.00 0.00 60 1015.9
20260508044551 58 336 0.0 3.0 0.00 0.00 0.00 60 1016.0
20260508043054 59 0 0.0 2.0 0.00 0.00 0.00 60 1016.0
20260508041551 59 0 0.0 1.0 0.00 0.00 0.00 58 1015.8
20260508040052 59 24 0.0 2.0 0.00 0.00 0.00 59 1015.7
20260508034552 59 0 0.0 2.0 0.00 0.00 0.00 63 1015.6
20260508033059 59 0 0.0 2.0 0.00 0.00 0.00 61 1015.5
20260508031552 60 0 0.0 2.0 0.00 0.00 0.00 60 1015.4
20260508030055 61 0 0.0 2.0 0.00 0.00 0.00 59 1015.3
20260508024600 61 0 0.0 2.0 0.00 0.00 0.00 58 1015.4
20260508023056 62 0 0.0 2.0 0.00 0.00 0.00 55 1015.5
20260508021552 63 0 0.0 2.0 0.00 0.00 0.00 52 1015.5
20260508020058 64 291 0.0 3.0 0.00 0.00 0.00 50 1015.4
20260508014552 64 0 0.0 2.0 0.00 0.00 0.00 46 1015.6
20260508013054 65 0 0.0 3.0 0.00 0.00 0.00 48 1015.8
20260508011606 65 0 0.0 2.0 0.00 0.00 0.00 49 1015.8
20260508010054 65 0 0.0 3.0 0.00 0.00 0.00 48 1015.8
20260508004558 65 11 0.0 4.0 0.00 0.00 0.00 46 1015.9
20260508003053 65 294 0.0 2.0 0.00 0.00 0.00 46 1016.0
20260508001553 66 115 0.0 3.0 0.00 0.00 0.00 48 1016.1
20260508000100 66 0 1.0 3.0 0.00 0.00 0.00 49 1016.3
20260507234559 65 144 1.0 3.0 0.00 0.00 0.00 54 1016.5
20260507233052 66 0 0.0 4.0 0.00 0.00 0.00 49 1016.8
20260507231559 68 0 1.0 5.0 0.00 0.00 0.00 45 1017.0
20260507230053 66 127 1.0 4.0 0.00 0.00 0.00 48 1017.2
20260507224558 66 132 0.0 5.0 0.00 0.00 0.00 52 1017.3
20260507223057 66 126 1.0 5.0 0.00 0.00 0.00 51 1017.4
20260507221554 65 171 1.0 5.0 0.00 0.00 0.00 54 1017.4
20260507220053 67 0 1.0 4.0 0.00 0.00 0.00 49 1017.6
20260507214556 65 188 1.0 4.0 0.00 0.00 0.00 46 1017.8
20260507213054 64 104 3.0 7.0 0.00 0.00 0.00 46 1017.9
20260507211551 64 181 1.0 4.0 0.00 0.00 0.00 54 1018.1
20260507210059 63 223 1.0 6.0 0.00 0.00 0.00 52 1018.2
20260507204553 63 84 2.0 4.0 0.00 0.00 0.00 51 1018.5
20260507203053 63 149 1.0 4.0 0.00 0.00 0.00 50 1018.7
20260507201608 62 133 1.0 5.0 0.00 0.00 0.00 56 1018.8
20260507200057 61 0 1.0 4.0 0.00 0.00 0.00 56 1019.0
20260507194604 60 100 1.0 5.0 0.00 0.00 0.00 58 1019.1
20260507193055 61 270 1.0 4.0 0.00 0.00 0.00 63 1019.2
20260507191553 59 36 2.0 5.0 0.00 0.00 0.00 60 1019.4
20260507190049 59 199 1.0 4.0 0.00 0.00 0.00 62 1019.5
20260507184554 59 176 0.0 4.0 0.00 0.00 0.00 68 1019.6
20260507183051 58 315 1.0 9.0 0.00 0.00 0.00 66 1019.5